Alcira, Spain
Current Conditions -  °F | °C
As of 6:30 PM on Thursday 23 Oct 2014 (Local Time) from LEVC Reporting Station
Clear Clear  
Wind Chill: 75°   Ceiling: Unl
Heat Index: 75°   Visibility: 6mi
Dew Point: 52°   Wind: 9mph
Humidity: 44%   Direction: 110°ESE
Pressure: 30"   Gusts: NA
Location:  39.15°N, 0.44°W
Report Text: LEVC 231630Z 11008KT CAVOK 24/11 Q1016 NOSIG
Loading
Personal Weather Stations






























Interactive Weather Map
Tropical Storm Tracking
New forecast layout! Learn more

10-Day Weather Forecast

Advertisements
Track Severe Weather on mobile